sensor_id;sensor_type;location;lat;lon;timestamp;temperature;humidity
27258;DHT22;62045;49.986;8.672;2023-02-07T00:00:49;16.60;52.20
27258;DHT22;62045;49.986;8.672;2023-02-07T00:05:50;16.60;52.10
27258;DHT22;62045;49.986;8.672;2023-02-07T00:10:52;16.60;52.00
27258;DHT22;62045;49.986;8.672;2023-02-07T00:15:53;16.50;52.10
27258;DHT22;62045;49.986;8.672;2023-02-07T00:20:57;16.40;52.20
27258;DHT22;62045;49.986;8.672;2023-02-07T00:25:59;16.30;52.40
27258;DHT22;62045;49.986;8.672;2023-02-07T00:31:05;16.20;52.50
27258;DHT22;62045;49.986;8.672;2023-02-07T00:36:08;16.20;52.60
27258;DHT22;62045;49.986;8.672;2023-02-07T00:41:11;16.20;52.60
27258;DHT22;62045;49.986;8.672;2023-02-07T00:46:13;16.40;52.40
27258;DHT22;62045;49.986;8.672;2023-02-07T00:51:14;16.50;52.30
27258;DHT22;62045;49.986;8.672;2023-02-07T00:56:16;16.50;51.90
27258;DHT22;62045;49.986;8.672;2023-02-07T01:01:17;16.50;51.80
27258;DHT22;62045;49.986;8.672;2023-02-07T01:06:18;16.50;51.80
27258;DHT22;62045;49.986;8.672;2023-02-07T01:11:20;16.40;51.70
27258;DHT22;62045;49.986;8.672;2023-02-07T01:16:24;16.40;51.90
27258;DHT22;62045;49.986;8.672;2023-02-07T01:21:26;16.30;52.00
27258;DHT22;62045;49.986;8.672;2023-02-07T01:26:28;16.20;52.20
27258;DHT22;62045;49.986;8.672;2023-02-07T01:31:29;16.10;52.40
27258;DHT22;62045;49.986;8.672;2023-02-07T01:36:30;16.20;52.30
27258;DHT22;62045;49.986;8.672;2023-02-07T01:41:32;16.30;52.20
27258;DHT22;62045;49.986;8.672;2023-02-07T01:46:34;16.40;51.90
27258;DHT22;62045;49.986;8.672;2023-02-07T01:51:36;16.50;51.70
27258;DHT22;62045;49.986;8.672;2023-02-07T01:56:41;16.50;51.70
27258;DHT22;62045;49.986;8.672;2023-02-07T02:01:44;16.50;51.60
27258;DHT22;62045;49.986;8.672;2023-02-07T02:06:45;16.40;51.60
27258;DHT22;62045;49.986;8.672;2023-02-07T02:17:16;16.20;51.90
27258;DHT22;62045;49.986;8.672;2023-02-07T02:28:13;16.20;52.20
27258;DHT22;62045;49.986;8.672;2023-02-07T02:33:41;16.20;52.10
27258;DHT22;62045;49.986;8.672;2023-02-07T02:38:48;16.40;52.00
27258;DHT22;62045;49.986;8.672;2023-02-07T02:43:55;16.40;51.70
27258;DHT22;62045;49.986;8.672;2023-02-07T02:48:59;16.50;51.60
27258;DHT22;62045;49.986;8.672;2023-02-07T02:54:00;16.50;51.60
27258;DHT22;62045;49.986;8.672;2023-02-07T02:59:36;16.50;51.60
27258;DHT22;62045;49.986;8.672;2023-02-07T03:10:18;16.40;52.40
27258;DHT22;62045;49.986;8.672;2023-02-07T03:15:31;16.30;51.90
27258;DHT22;62045;49.986;8.672;2023-02-07T03:20:37;16.20;52.10
27258;DHT22;62045;49.986;8.672;2023-02-07T03:25:39;16.20;52.10
27258;DHT22;62045;49.986;8.672;2023-02-07T03:30:42;16.30;52.10
27258;DHT22;62045;49.986;8.672;2023-02-07T03:35:51;16.40;51.80
27258;DHT22;62045;49.986;8.672;2023-02-07T03:41:00;16.50;51.60
27258;DHT22;62045;49.986;8.672;2023-02-07T03:46:03;16.50;51.40
27258;DHT22;62045;49.986;8.672;2023-02-07T03:51:05;16.50;51.40
27258;DHT22;62045;49.986;8.672;2023-02-07T03:56:06;16.40;51.40
27258;DHT22;62045;49.986;8.672;2023-02-07T04:01:07;16.30;51.50
27258;DHT22;62045;49.986;8.672;2023-02-07T04:06:09;16.30;52.30
27258;DHT22;62045;49.986;8.672;2023-02-07T04:11:10;16.20;51.90
27258;DHT22;62045;49.986;8.672;2023-02-07T04:16:10;16.10;52.00
27258;DHT22;62045;49.986;8.672;2023-02-07T04:21:12;16.20;52.00
27258;DHT22;62045;49.986;8.672;2023-02-07T04:26:13;16.30;51.90
27258;DHT22;62045;49.986;8.672;2023-02-07T04:31:14;16.40;51.60
27258;DHT22;62045;49.986;8.672;2023-02-07T04:36:16;16.50;51.40
27258;DHT22;62045;49.986;8.672;2023-02-07T04:41:17;16.50;51.30
27258;DHT22;62045;49.986;8.672;2023-02-07T04:46:17;16.50;51.30
27258;DHT22;62045;49.986;8.672;2023-02-07T04:51:19;16.40;51.40
27258;DHT22;62045;49.986;8.672;2023-02-07T04:56:20;16.30;51.50
27258;DHT22;62045;49.986;8.672;2023-02-07T05:01:21;16.20;51.70
27258;DHT22;62045;49.986;8.672;2023-02-07T05:06:23;16.10;51.80
27258;DHT22;62045;49.986;8.672;2023-02-07T05:11:24;16.10;52.00
27258;DHT22;62045;49.986;8.672;2023-02-07T05:16:26;16.00;52.10
27258;DHT22;62045;49.986;8.672;2023-02-07T05:21:28;16.10;52.20
27258;DHT22;62045;49.986;8.672;2023-02-07T05:26:29;16.30;51.80
27258;DHT22;62045;49.986;8.672;2023-02-07T05:31:30;16.60;51.30
27258;DHT22;62045;49.986;8.672;2023-02-07T05:36:32;16.80;50.90
27258;DHT22;62045;49.986;8.672;2023-02-07T05:41:32;16.80;50.60
27258;DHT22;62045;49.986;8.672;2023-02-07T05:46:33;16.80;50.60
27258;DHT22;62045;49.986;8.672;2023-02-07T05:51:35;16.80;50.60
27258;DHT22;62045;49.986;8.672;2023-02-07T05:56:36;16.60;50.80
27258;DHT22;62045;49.986;8.672;2023-02-07T06:01:37;16.50;51.00
27258;DHT22;62045;49.986;8.672;2023-02-07T06:06:39;16.40;51.20
27258;DHT22;62045;49.986;8.672;2023-02-07T06:11:40;16.30;51.40
27258;DHT22;62045;49.986;8.672;2023-02-07T06:16:40;16.30;51.60
27258;DHT22;62045;49.986;8.672;2023-02-07T06:21:43;16.40;51.60
27258;DHT22;62045;49.986;8.672;2023-02-07T06:26:43;16.60;51.20
27258;DHT22;62045;49.986;8.672;2023-02-07T06:31:44;16.80;50.80
27258;DHT22;62045;49.986;8.672;2023-02-07T06:36:46;16.90;50.60
27258;DHT22;62045;49.986;8.672;2023-02-07T06:41:47;16.90;50.50
27258;DHT22;62045;49.986;8.672;2023-02-07T06:46:48;16.80;50.60
27258;DHT22;62045;49.986;8.672;2023-02-07T06:51:50;16.70;50.70
27258;DHT22;62045;49.986;8.672;2023-02-07T06:56:50;16.60;50.90
27258;DHT22;62045;49.986;8.672;2023-02-07T07:01:51;16.40;51.10
27258;DHT22;62045;49.986;8.672;2023-02-07T07:06:53;16.30;51.30
27258;DHT22;62045;49.986;8.672;2023-02-07T07:11:54;16.20;51.50
27258;DHT22;62045;49.986;8.672;2023-02-07T07:16:54;16.20;51.70
27258;DHT22;62045;49.986;8.672;2023-02-07T07:21:56;16.30;51.50
27258;DHT22;62045;49.986;8.672;2023-02-07T07:26:58;16.60;51.20
27258;DHT22;62045;49.986;8.672;2023-02-07T07:31:59;16.70;50.70
27258;DHT22;62045;49.986;8.672;2023-02-07T07:37:01;16.80;50.50
27258;DHT22;62045;49.986;8.672;2023-02-07T07:42:01;16.80;50.40
27258;DHT22;62045;49.986;8.672;2023-02-07T07:47:23;16.70;50.50
27258;DHT22;62045;49.986;8.672;2023-02-07T07:52:25;16.60;50.60
27258;DHT22;62045;49.986;8.672;2023-02-07T07:57:26;16.50;50.80
27258;DHT22;62045;49.986;8.672;2023-02-07T08:02:26;16.30;51.00
27258;DHT22;62045;49.986;8.672;2023-02-07T08:07:28;16.20;51.10
27258;DHT22;62045;49.986;8.672;2023-02-07T08:12:29;16.10;51.30
27258;DHT22;62045;49.986;8.672;2023-02-07T08:17:30;16.20;51.50
27258;DHT22;62045;49.986;8.672;2023-02-07T08:22:32;16.30;51.20
27258;DHT22;62045;49.986;8.672;2023-02-07T08:27:33;16.60;50.90
27258;DHT22;62045;49.986;8.672;2023-02-07T08:32:34;16.80;52.20
27258;DHT22;62045;49.986;8.672;2023-02-07T08:37:36;17.00;52.70
27258;DHT22;62045;49.986;8.672;2023-02-07T08:42:37;17.10;52.50
27258;DHT22;62045;49.986;8.672;2023-02-07T08:47:37;17.00;52.00
27258;DHT22;62045;49.986;8.672;2023-02-07T08:52:40;17.00;51.70
27258;DHT22;62045;49.986;8.672;2023-02-07T08:57:41;16.90;51.70
27258;DHT22;62045;49.986;8.672;2023-02-07T09:02:41;16.70;51.00
27258;DHT22;62045;49.986;8.672;2023-02-07T09:07:43;16.60;51.20
27258;DHT22;62045;49.986;8.672;2023-02-07T09:12:44;16.50;51.30
27258;DHT22;62045;49.986;8.672;2023-02-07T09:17:45;16.50;51.30
27258;DHT22;62045;49.986;8.672;2023-02-07T09:22:48;16.40;50.90
27258;DHT22;62045;49.986;8.672;2023-02-07T09:27:49;16.30;50.60
27258;DHT22;62045;49.986;8.672;2023-02-07T09:32:50;16.30;50.50
27258;DHT22;62045;49.986;8.672;2023-02-07T09:37:53;16.50;50.30
27258;DHT22;62045;49.986;8.672;2023-02-07T09:42:55;16.70;49.00
27258;DHT22;62045;49.986;8.672;2023-02-07T09:48:02;16.70;47.30
27258;DHT22;62045;49.986;8.672;2023-02-07T09:53:12;16.70;47.10
27258;DHT22;62045;49.986;8.672;2023-02-07T09:58:18;16.60;46.00
27258;DHT22;62045;49.986;8.672;2023-02-07T10:03:21;16.50;46.10
27258;DHT22;62045;49.986;8.672;2023-02-07T10:08:24;16.40;45.20
27258;DHT22;62045;49.986;8.672;2023-02-07T10:13:41;16.30;45.00
27258;DHT22;62045;49.986;8.672;2023-02-07T10:18:48;16.50;44.70
27258;DHT22;62045;49.986;8.672;2023-02-07T10:23:55;16.70;44.30
27258;DHT22;62045;49.986;8.672;2023-02-07T10:29:27;16.80;43.40
27258;DHT22;62045;49.986;8.672;2023-02-07T10:34:34;16.90;43.00
27258;DHT22;62045;49.986;8.672;2023-02-07T10:39:39;16.90;42.70
27258;DHT22;62045;49.986;8.672;2023-02-07T10:44:41;16.80;43.30
27258;DHT22;62045;49.986;8.672;2023-02-07T10:49:43;16.70;43.80
27258;DHT22;62045;49.986;8.672;2023-02-07T10:54:51;16.50;44.30
27258;DHT22;62045;49.986;8.672;2023-02-07T10:59:57;16.40;44.90
27258;DHT22;62045;49.986;8.672;2023-02-07T11:05:01;16.30;45.30
27258;DHT22;62045;49.986;8.672;2023-02-07T11:10:18;16.40;45.80
27258;DHT22;62045;49.986;8.672;2023-02-07T11:15:20;16.50;45.90
27258;DHT22;62045;49.986;8.672;2023-02-07T11:20:27;16.50;45.70
27258;DHT22;62045;49.986;8.672;2023-02-07T11:25:31;16.60;45.70
27258;DHT22;62045;49.986;8.672;2023-02-07T11:30:36;16.60;45.80
27258;DHT22;62045;49.986;8.672;2023-02-07T11:35:36;16.60;46.00
27258;DHT22;62045;49.986;8.672;2023-02-07T11:40:47;16.40;46.20
27258;DHT22;62045;49.986;8.672;2023-02-07T11:45:51;16.30;46.50
27258;DHT22;62045;49.986;8.672;2023-02-07T11:50:55;16.20;46.70
27258;DHT22;62045;49.986;8.672;2023-02-07T11:55:58;16.10;46.90
27258;DHT22;62045;49.986;8.672;2023-02-07T12:01:00;16.20;47.10
27258;DHT22;62045;49.986;8.672;2023-02-07T12:06:03;16.40;47.60
27258;DHT22;62045;49.986;8.672;2023-02-07T12:11:12;16.60;46.60
27258;DHT22;62045;49.986;8.672;2023-02-07T12:16:18;16.70;46.40
27258;DHT22;62045;49.986;8.672;2023-02-07T12:21:24;16.80;46.60
27258;DHT22;62045;49.986;8.672;2023-02-07T12:26:29;16.70;46.80
27258;DHT22;62045;49.986;8.672;2023-02-07T12:31:40;16.60;46.80
27258;DHT22;62045;49.986;8.672;2023-02-07T12:36:46;16.60;47.10
27258;DHT22;62045;49.986;8.672;2023-02-07T12:41:54;16.40;47.30
27258;DHT22;62045;49.986;8.672;2023-02-07T12:47:00;16.30;47.50
27258;DHT22;62045;49.986;8.672;2023-02-07T12:52:17;16.20;47.80
27258;DHT22;62045;49.986;8.672;2023-02-07T12:57:24;16.30;47.90
27258;DHT22;62045;49.986;8.672;2023-02-07T13:02:36;16.40;48.20
27258;DHT22;62045;49.986;8.672;2023-02-07T13:07:44;16.60;47.20
27258;DHT22;62045;49.986;8.672;2023-02-07T13:12:52;16.70;46.90
27258;DHT22;62045;49.986;8.672;2023-02-07T13:18:01;16.80;46.90
27258;DHT22;62045;49.986;8.672;2023-02-07T13:23:13;16.70;47.00
27258;DHT22;62045;49.986;8.672;2023-02-07T13:28:20;16.60;47.20
27258;DHT22;62045;49.986;8.672;2023-02-07T13:33:33;16.50;47.40
27258;DHT22;62045;49.986;8.672;2023-02-07T13:38:52;16.40;47.50
27258;DHT22;62045;49.986;8.672;2023-02-07T13:44:02;16.20;47.80
27258;DHT22;62045;49.986;8.672;2023-02-07T13:49:10;16.20;48.10
27258;DHT22;62045;49.986;8.672;2023-02-07T13:54:27;16.10;48.10
27258;DHT22;62045;49.986;8.672;2023-02-07T13:59:36;16.10;48.10
27258;DHT22;62045;49.986;8.672;2023-02-07T14:04:46;16.00;48.20
27258;DHT22;62045;49.986;8.672;2023-02-07T14:09:48;16.00;48.40
27258;DHT22;62045;49.986;8.672;2023-02-07T14:14:51;16.20;48.30
27258;DHT22;62045;49.986;8.672;2023-02-07T14:19:53;16.50;47.90
27258;DHT22;62045;49.986;8.672;2023-02-07T14:25:20;16.70;47.50
27258;DHT22;62045;49.986;8.672;2023-02-07T14:30:27;16.80;47.10
27258;DHT22;62045;49.986;8.672;2023-02-07T14:35:31;16.80;47.00
27258;DHT22;62045;49.986;8.672;2023-02-07T14:40:49;16.70;47.00
27258;DHT22;62045;49.986;8.672;2023-02-07T14:46:05;16.60;47.80
27258;DHT22;62045;49.986;8.672;2023-02-07T14:51:11;16.50;47.30
27258;DHT22;62045;49.986;8.672;2023-02-07T14:56:24;16.40;47.50
27258;DHT22;62045;49.986;8.672;2023-02-07T15:01:29;16.30;47.60
27258;DHT22;62045;49.986;8.672;2023-02-07T15:06:36;16.10;47.80
27258;DHT22;62045;49.986;8.672;2023-02-07T15:11:37;16.10;48.10
27258;DHT22;62045;49.986;8.672;2023-02-07T15:16:39;16.30;48.00
27258;DHT22;62045;49.986;8.672;2023-02-07T15:21:42;16.50;47.60
27258;DHT22;62045;49.986;8.672;2023-02-07T15:26:47;16.70;47.40
27258;DHT22;62045;49.986;8.672;2023-02-07T15:31:50;16.80;47.20
27258;DHT22;62045;49.986;8.672;2023-02-07T15:36:51;16.80;47.30
27258;DHT22;62045;49.986;8.672;2023-02-07T15:41:53;16.70;47.30
27258;DHT22;62045;49.986;8.672;2023-02-07T15:46:58;16.60;47.50
27258;DHT22;62045;49.986;8.672;2023-02-07T15:52:06;16.50;47.60
27258;DHT22;62045;49.986;8.672;2023-02-07T15:57:11;16.40;47.80
27258;DHT22;62045;49.986;8.672;2023-02-07T16:02:24;16.30;47.90
27258;DHT22;62045;49.986;8.672;2023-02-07T16:07:28;16.30;48.20
27258;DHT22;62045;49.986;8.672;2023-02-07T16:12:31;16.30;48.40
27258;DHT22;62045;49.986;8.672;2023-02-07T16:17:39;16.50;48.20
27258;DHT22;62045;49.986;8.672;2023-02-07T16:22:40;16.60;47.90
27258;DHT22;62045;49.986;8.672;2023-02-07T16:27:43;16.70;47.60
27258;DHT22;62045;49.986;8.672;2023-02-07T16:32:45;16.80;47.60
27258;DHT22;62045;49.986;8.672;2023-02-07T16:37:46;16.80;47.60
27258;DHT22;62045;49.986;8.672;2023-02-07T16:42:47;16.70;47.70
27258;DHT22;62045;49.986;8.672;2023-02-07T16:47:50;16.60;47.90
27258;DHT22;62045;49.986;8.672;2023-02-07T16:52:52;16.40;48.10
27258;DHT22;62045;49.986;8.672;2023-02-07T16:57:53;16.30;48.20
27258;DHT22;62045;49.986;8.672;2023-02-07T17:02:56;16.30;48.50
27258;DHT22;62045;49.986;8.672;2023-02-07T17:07:57;16.20;48.60
27258;DHT22;62045;49.986;8.672;2023-02-07T17:12:57;16.40;48.60
27258;DHT22;62045;49.986;8.672;2023-02-07T17:17:59;16.60;48.20
27258;DHT22;62045;49.986;8.672;2023-02-07T17:23:00;16.80;47.90
27258;DHT22;62045;49.986;8.672;2023-02-07T17:28:01;16.80;48.40
27258;DHT22;62045;49.986;8.672;2023-02-07T17:33:03;16.90;49.80
27258;DHT22;62045;49.986;8.672;2023-02-07T17:38:04;17.10;53.10
27258;DHT22;62045;49.986;8.672;2023-02-07T17:43:06;17.30;51.20
27258;DHT22;62045;49.986;8.672;2023-02-07T17:48:10;17.30;50.30
27258;DHT22;62045;49.986;8.672;2023-02-07T17:53:11;17.40;50.70
27258;DHT22;62045;49.986;8.672;2023-02-07T17:58:13;17.40;51.80
27258;DHT22;62045;49.986;8.672;2023-02-07T18:03:16;17.50;53.20
27258;DHT22;62045;49.986;8.672;2023-02-07T18:08:17;17.50;54.80
27258;DHT22;62045;49.986;8.672;2023-02-07T18:13:17;17.60;53.60
27258;DHT22;62045;49.986;8.672;2023-02-07T18:18:19;17.70;52.80
27258;DHT22;62045;49.986;8.672;2023-02-07T18:23:20;17.80;52.30
27258;DHT22;62045;49.986;8.672;2023-02-07T18:28:21;17.70;52.10
27258;DHT22;62045;49.986;8.672;2023-02-07T18:33:24;17.60;52.10
27258;DHT22;62045;49.986;8.672;2023-02-07T18:38:25;17.50;52.10
27258;DHT22;62045;49.986;8.672;2023-02-07T18:43:25;17.40;52.20
27258;DHT22;62045;49.986;8.672;2023-02-07T18:48:28;17.20;52.20
27258;DHT22;62045;49.986;8.672;2023-02-07T18:53:29;17.20;52.30
27258;DHT22;62045;49.986;8.672;2023-02-07T18:58:30;17.20;52.20
27258;DHT22;62045;49.986;8.672;2023-02-07T19:03:33;17.20;51.90
27258;DHT22;62045;49.986;8.672;2023-02-07T19:08:34;17.20;51.80
27258;DHT22;62045;49.986;8.672;2023-02-07T19:13:35;17.20;51.80
27258;DHT22;62045;49.986;8.672;2023-02-07T19:18:38;17.10;51.90
27258;DHT22;62045;49.986;8.672;2023-02-07T19:23:39;17.00;52.00
27258;DHT22;62045;49.986;8.672;2023-02-07T19:28:40;16.80;51.90
27258;DHT22;62045;49.986;8.672;2023-02-07T19:33:43;16.70;52.00
27258;DHT22;62045;49.986;8.672;2023-02-07T19:38:43;16.60;52.10
27258;DHT22;62045;49.986;8.672;2023-02-07T19:43:44;16.50;52.20
27258;DHT22;62045;49.986;8.672;2023-02-07T19:48:47;16.40;52.60
27258;DHT22;62045;49.986;8.672;2023-02-07T19:53:49;16.50;52.70
27258;DHT22;62045;49.986;8.672;2023-02-07T19:58:51;16.70;53.40
27258;DHT22;62045;49.986;8.672;2023-02-07T20:03:54;16.80;53.00
27258;DHT22;62045;49.986;8.672;2023-02-07T20:08:56;16.90;52.70
27258;DHT22;62045;49.986;8.672;2023-02-07T20:13:58;16.90;52.50
27258;DHT22;62045;49.986;8.672;2023-02-07T20:19:01;16.90;52.40
27258;DHT22;62045;49.986;8.672;2023-02-07T20:24:02;16.80;52.40
27258;DHT22;62045;49.986;8.672;2023-02-07T20:29:05;16.70;52.50
27258;DHT22;62045;49.986;8.672;2023-02-07T20:34:08;16.50;52.50
27258;DHT22;62045;49.986;8.672;2023-02-07T20:39:11;16.40;52.60
27258;DHT22;62045;49.986;8.672;2023-02-07T20:44:14;16.30;53.30
27258;DHT22;62045;49.986;8.672;2023-02-07T20:49:18;16.20;53.00
27258;DHT22;62045;49.986;8.672;2023-02-07T20:54:21;16.20;53.10
27258;DHT22;62045;49.986;8.672;2023-02-07T20:59:24;16.40;52.80
27258;DHT22;62045;49.986;8.672;2023-02-07T21:04:27;16.60;52.30
27258;DHT22;62045;49.986;8.672;2023-02-07T21:09:28;16.80;51.90
27258;DHT22;62045;49.986;8.672;2023-02-07T21:14:30;16.80;51.70
27258;DHT22;62045;49.986;8.672;2023-02-07T21:19:33;16.80;52.20
27258;DHT22;62045;49.986;8.672;2023-02-07T21:24:34;16.80;52.30
27258;DHT22;62045;49.986;8.672;2023-02-07T21:29:35;16.70;51.70
27258;DHT22;62045;49.986;8.672;2023-02-07T21:34:37;16.60;51.80
27258;DHT22;62045;49.986;8.672;2023-02-07T21:39:38;16.50;52.00
27258;DHT22;62045;49.986;8.672;2023-02-07T21:44:38;16.40;52.10
27258;DHT22;62045;49.986;8.672;2023-02-07T21:49:40;16.30;52.20
27258;DHT22;62045;49.986;8.672;2023-02-07T21:54:41;16.30;52.30
27258;DHT22;62045;49.986;8.672;2023-02-07T21:59:42;16.30;52.40
27258;DHT22;62045;49.986;8.672;2023-02-07T22:04:44;16.30;52.30
27258;DHT22;62045;49.986;8.672;2023-02-07T22:09:45;16.40;52.20
27258;DHT22;62045;49.986;8.672;2023-02-07T22:14:48;16.50;51.80
27258;DHT22;62045;49.986;8.672;2023-02-07T22:19:50;16.60;51.50
27258;DHT22;62045;49.986;8.672;2023-02-07T22:24:51;16.60;51.40
27258;DHT22;62045;49.986;8.672;2023-02-07T22:29:52;16.60;51.40
27258;DHT22;62045;49.986;8.672;2023-02-07T22:34:54;16.50;51.40
27258;DHT22;62045;49.986;8.672;2023-02-07T22:39:54;16.40;51.50
27258;DHT22;62045;49.986;8.672;2023-02-07T22:44:55;16.30;51.70
27258;DHT22;62045;49.986;8.672;2023-02-07T22:49:57;16.20;51.80
27258;DHT22;62045;49.986;8.672;2023-02-07T22:54:58;16.10;52.00
27258;DHT22;62045;49.986;8.672;2023-02-07T22:59:58;16.20;51.90
27258;DHT22;62045;49.986;8.672;2023-02-07T23:05:01;16.30;51.80
27258;DHT22;62045;49.986;8.672;2023-02-07T23:10:02;16.40;51.50
27258;DHT22;62045;49.986;8.672;2023-02-07T23:15:04;16.50;51.30
27258;DHT22;62045;49.986;8.672;2023-02-07T23:20:07;16.50;51.10
27258;DHT22;62045;49.986;8.672;2023-02-07T23:25:07;16.50;51.10
27258;DHT22;62045;49.986;8.672;2023-02-07T23:30:10;16.40;51.10
27258;DHT22;62045;49.986;8.672;2023-02-07T23:35:12;16.30;51.20
27258;DHT22;62045;49.986;8.672;2023-02-07T23:45:13;16.10;51.50
27258;DHT22;62045;49.986;8.672;2023-02-07T23:50:16;16.10;51.60
27258;DHT22;62045;49.986;8.672;2023-02-07T23:55:16;16.20;51.60
